Aviation Digital Data Service (ADDS)

Output produced by METARs form (1314 UTC 19 January 2019)
found at http://www.aviationweather.gov/metar/data/
 
Forecast for: VTUO (BURIRUM , TH)
Text: TAF VTUO 191100Z 1912/2012 03005KT 8000 NSC
Forecast period: 1200 UTC 19 January 2019 to 0200 UTC 20 January 2019
Forecast type: FROM: standard forecast or significant change
Winds: from the NNE (30 degrees) at 6 MPH (5 knots; 2.6 m/s)
Visibility: 5 miles (8 km)
Ceiling: unknown
Clouds: missing
Weather: no significant weather forecast for this period
Text: BECMG 2002/2004 9000 FEW040
Forecast period: 0200 to 1200 UTC 20 January 2019
Forecast type: BECOMING: Conditions expected to become as follows by 0400 UTC 20 January 2019
Winds: from the NNE (30 degrees) at 6 MPH (5 knots; 2.6 m/s)
Visibility: 6 miles (9 km)
Ceiling: at least 12,000 feet AGL
Clouds: few clouds at 4000 feet AGL
Weather: no significant weather forecast for this period